Burton, Washington
Current Conditions -  °F | °C
As of 7:16 PM on Saturday 25 Oct 2014 (Local Time) from KSEA Reporting Station
Light Rain Light Rain  
Wind Chill: 57°   Ceiling: 2800
Heat Index: 57°   Visibility: 7mi
Dew Point: 54°   Wind: 17mph
Humidity: 88%   Direction: 200°SSW
Pressure: 29.35"   Gusts: 29mph
Location:  47.39°N, 122.46°W
Report Text: KSEA 260216Z 20015G25KT 7SM -RA FEW018 BKN028 OVC046 14/12 A2935 RMK AO2 PRESRR P0004
Loading
Personal Weather Stations






























Interactive Weather Map
Tropical Storm Tracking
New forecast layout! Learn more

10-Day Weather Forecast

Advertisements
Track Severe Weather on mobile